Time;durP1;ratioP1;P1;durP2;ratioP2;P2;SDS_P1;SDS_P2;PMS_P1;PMS_P2;Temp;Humidity;BMP_temperature;BMP_pressure;BME280_temperature;BME280_humidity;BME280_pressure;Samples;Min_cycle;Max_cycle;Signal;HPM_P1;HPM_P2
2022/05/17 00:00:34;;;;;;;;;;;23.10;55.50;;;;;;4982511;28;19921;-70
2022/05/17 00:03:00;;;;;;;;;;;23.10;55.50;;;;;;4994240;28;19921;-70
2022/05/17 00:05:27;;;;;;;;;;;23.10;55.80;;;;;;5001236;28;19925;-69
2022/05/17 00:07:53;;;;;;;;;;;23.10;55.40;;;;;;4974003;28;20380;-69
2022/05/17 00:10:18;;;;;;;;;;;23.10;55.50;;;;;;4982215;28;19914;-68
2022/05/17 00:12:44;;;;;;;;;;;23.10;55.50;;;;;;4973879;28;19919;-70
2022/05/17 00:15:09;;;;;;;;;;;23.10;55.40;;;;;;5002204;28;19929;-69
2022/05/17 00:17:35;;;;;;;;;;;23.10;55.50;;;;;;4994240;28;19995;-70
2022/05/17 00:20:00;;;;;;;;;;;23.00;55.40;;;;;;4981933;28;19941;-69
2022/05/17 00:22:26;;;;;;;;;;;23.10;55.50;;;;;;4986250;28;19922;-68
2022/05/17 00:24:51;;;;;;;;;;;23.10;55.50;;;;;;5000617;28;19917;-69
2022/05/17 00:27:17;;;;;;;;;;;23.10;55.40;;;;;;4996358;28;19917;-70
2022/05/17 00:29:42;;;;;;;;;;;23.00;55.40;;;;;;4981934;28;20416;-70
2022/05/17 00:32:08;;;;;;;;;;;23.10;55.40;;;;;;4966242;28;20001;-68
2022/05/17 00:34:34;;;;;;;;;;;23.00;55.40;;;;;;5001084;28;19937;-69
2022/05/17 00:37:00;;;;;;;;;;;23.10;55.50;;;;;;5002541;28;19920;-68
2022/05/17 00:39:25;;;;;;;;;;;23.10;55.40;;;;;;4980825;28;21940;-69
2022/05/17 00:41:51;;;;;;;;;;;23.10;55.60;;;;;;4980554;28;19968;-69
2022/05/17 00:47:02;;;;;;;;;;;23.10;55.40;;;;;;5001839;28;19964;-69
2022/05/17 00:49:28;;;;;;;;;;;23.10;55.50;;;;;;4981650;28;20525;-69
2022/05/17 00:51:54;;;;;;;;;;;23.00;55.40;;;;;;4980912;28;20579;-68
2022/05/17 00:54:20;;;;;;;;;;;23.10;55.40;;;;;;4997556;28;19984;-68
2022/05/17 00:56:49;;;;;;;;;;;23.10;55.50;;;;;;5001232;28;19928;-70
2022/05/17 00:59:15;;;;;;;;;;;23.10;55.50;;;;;;4968351;28;19918;-69
2022/05/17 01:01:41;;;;;;;;;;;23.10;55.50;;;;;;4980719;28;19918;-69
2022/05/17 01:04:06;;;;;;;;;;;23.00;55.40;;;;;;4994731;28;19957;-70
2022/05/17 01:06:45;;;;;;;;;;;23.00;55.40;;;;;;5000127;28;19918;-70
2022/05/17 01:09:11;;;;;;;;;;;23.00;55.40;;;;;;4986125;28;20285;-67
2022/05/17 01:11:36;;;;;;;;;;;23.00;55.40;;;;;;4981215;28;19921;-70
2022/05/17 01:16:46;;;;;;;;;;;23.00;55.40;;;;;;5000625;28;19926;-70
2022/05/17 01:19:11;;;;;;;;;;;23.00;55.40;;;;;;4988604;28;19976;-69
2022/05/17 01:21:36;;;;;;;;;;;23.00;55.30;;;;;;4980867;28;19924;-70
2022/05/17 01:24:02;;;;;;;;;;;23.10;55.40;;;;;;4994326;28;20056;-69
2022/05/17 01:26:28;;;;;;;;;;;23.00;55.30;;;;;;5004657;28;20456;-69
2022/05/17 01:28:54;;;;;;;;;;;23.00;55.40;;;;;;4995333;28;19917;-69
2022/05/17 01:31:19;;;;;;;;;;;23.00;55.40;;;;;;4985055;28;20069;-70
2022/05/17 01:33:44;;;;;;;;;;;23.00;55.30;;;;;;4990392;28;19914;-70
2022/05/17 01:36:10;;;;;;;;;;;23.00;55.40;;;;;;5003994;28;19933;-69
2022/05/17 01:38:36;;;;;;;;;;;23.10;55.50;;;;;;4998882;28;20345;-69
2022/05/17 01:41:01;;;;;;;;;;;23.00;55.40;;;;;;4984420;28;20297;-69
2022/05/17 01:43:27;;;;;;;;;;;23.00;55.40;;;;;;4986865;28;19972;-70
2022/05/17 01:45:52;;;;;;;;;;;23.00;55.40;;;;;;5003596;28;20295;-69
2022/05/17 01:48:18;;;;;;;;;;;23.00;55.40;;;;;;5002672;28;19978;-68
2022/05/17 01:50:43;;;;;;;;;;;23.00;55.40;;;;;;4985347;28;19914;-69
2022/05/17 01:53:09;;;;;;;;;;;23.00;56.00;;;;;;4983858;28;19918;-70
2022/05/17 01:55:34;;;;;;;;;;;23.00;55.40;;;;;;5003081;28;19925;-69
2022/05/17 01:58:00;;;;;;;;;;;23.00;55.40;;;;;;4987189;28;20697;-70
2022/05/17 02:00:25;;;;;;;;;;;23.00;55.40;;;;;;4986725;28;19918;-70
2022/05/17 02:02:51;;;;;;;;;;;23.00;55.40;;;;;;4983692;28;19926;-69
2022/05/17 02:05:19;;;;;;;;;;;23.00;55.40;;;;;;4998570;28;20020;-70
2022/05/17 02:07:45;;;;;;;;;;;23.00;55.40;;;;;;5003999;28;19921;-70
2022/05/17 02:10:10;;;;;;;;;;;23.00;55.40;;;;;;4989500;28;19929;-70
2022/05/17 02:12:36;;;;;;;;;;;23.00;55.40;;;;;;4983100;28;19925;-69
2022/05/17 02:15:05;;;;;;;;;;;23.00;55.40;;;;;;4987829;28;19917;-69
2022/05/17 02:17:31;;;;;;;;;;;23.10;55.40;;;;;;4984602;28;19940;-69
2022/05/17 02:19:56;;;;;;;;;;;23.00;55.40;;;;;;4994001;28;20032;-68
2022/05/17 02:22:22;;;;;;;;;;;23.00;55.40;;;;;;5004650;28;19917;-69
2022/05/17 02:24:48;;;;;;;;;;;23.00;55.40;;;;;;4998421;28;20308;-69
2022/05/17 02:27:13;;;;;;;;;;;23.00;55.70;;;;;;4986116;28;20629;-68
2022/05/17 02:29:38;;;;;;;;;;;23.00;55.40;;;;;;4984211;28;20581;-70
2022/05/17 02:32:04;;;;;;;;;;;23.00;55.40;;;;;;4985953;28;19918;-69
2022/05/17 02:34:31;;;;;;;;;;;23.00;55.40;;;;;;4990166;28;19914;-69
2022/05/17 02:36:57;;;;;;;;;;;23.00;55.40;;;;;;5003196;28;20304;-69
2022/05/17 02:39:22;;;;;;;;;;;23.00;55.40;;;;;;4999908;28;19922;-69
2022/05/17 02:41:48;;;;;;;;;;;23.00;55.40;;;;;;4983629;28;19968;-68
2022/05/17 02:44:14;;;;;;;;;;;23.00;55.50;;;;;;4985607;28;19949;-67
2022/05/17 02:46:40;;;;;;;;;;;23.00;55.50;;;;;;5002815;28;19914;-68
2022/05/17 02:49:07;;;;;;;;;;;22.90;55.40;;;;;;5002626;28;19964;-69
2022/05/17 02:51:34;;;;;;;;;;;23.00;55.50;;;;;;4985297;28;19918;-69
2022/05/17 02:54:00;;;;;;;;;;;23.00;55.50;;;;;;4983413;28;19917;-69
2022/05/17 02:56:25;;;;;;;;;;;23.00;55.50;;;;;;5000532;28;19971;-69
2022/05/17 02:58:50;;;;;;;;;;;23.00;55.50;;;;;;5003202;28;19949;-69
2022/05/17 03:01:16;;;;;;;;;;;23.00;55.50;;;;;;4987449;28;19918;-69
2022/05/17 03:03:42;;;;;;;;;;;23.00;55.60;;;;;;4984164;28;20625;-69
2022/05/17 03:06:07;;;;;;;;;;;23.00;55.50;;;;;;4996409;28;19921;-69
2022/05/17 03:08:33;;;;;;;;;;;23.00;55.60;;;;;;5001896;28;20668;-69
2022/05/17 03:10:58;;;;;;;;;;;23.00;55.50;;;;;;4990856;28;19918;-70
2022/05/17 03:13:24;;;;;;;;;;;23.00;55.60;;;;;;4984086;28;20483;-69
2022/05/17 03:15:50;;;;;;;;;;;23.00;55.60;;;;;;4993844;28;19928;-68
2022/05/17 03:18:15;;;;;;;;;;;23.00;55.60;;;;;;5002005;28;19913;-69
2022/05/17 03:20:41;;;;;;;;;;;23.00;55.60;;;;;;4994622;28;19917;-69
2022/05/17 03:23:06;;;;;;;;;;;23.00;55.60;;;;;;4982264;28;19917;-70
2022/05/17 03:25:32;;;;;;;;;;;22.90;55.60;;;;;;4988291;28;20576;-69
2022/05/17 03:27:57;;;;;;;;;;;23.00;55.60;;;;;;5001964;28;19971;-70
2022/05/17 03:30:23;;;;;;;;;;;23.00;55.60;;;;;;4996837;28;19914;-69
2022/05/17 03:32:48;;;;;;;;;;;22.90;55.60;;;;;;4981598;28;19918;-69
2022/05/17 03:35:14;;;;;;;;;;;23.00;55.60;;;;;;4981084;28;19933;-70
2022/05/17 03:37:39;;;;;;;;;;;22.90;55.60;;;;;;4993040;28;19967;-68
2022/05/17 03:40:07;;;;;;;;;;;23.00;55.60;;;;;;4985447;28;19914;-67
2022/05/17 03:42:33;;;;;;;;;;;23.00;55.70;;;;;;5001763;28;20419;-68
2022/05/17 03:44:58;;;;;;;;;;;23.00;55.70;;;;;;5002483;28;20024;-70
2022/05/17 03:47:24;;;;;;;;;;;22.90;55.60;;;;;;4984280;28;19964;-69
2022/05/17 03:49:49;;;;;;;;;;;22.90;55.70;;;;;;4980848;28;19952;-68
2022/05/17 03:52:15;;;;;;;;;;;22.90;55.70;;;;;;4999756;28;20266;-69
2022/05/17 03:54:40;;;;;;;;;;;22.90;55.70;;;;;;5001488;28;19921;-70
2022/05/17 03:57:06;;;;;;;;;;;22.90;55.70;;;;;;4987108;28;19922;-67
2022/05/17 03:59:31;;;;;;;;;;;22.90;55.70;;;;;;4981112;28;19961;-70
2022/05/17 04:01:57;;;;;;;;;;;22.90;55.70;;;;;;4995252;28;19929;-69
2022/05/17 04:04:22;;;;;;;;;;;22.90;55.70;;;;;;5001327;28;19917;-68
2022/05/17 04:06:48;;;;;;;;;;;22.90;55.70;;;;;;4978757;28;20401;-68
2022/05/17 04:09:13;;;;;;;;;;;22.90;55.80;;;;;;4984372;28;19947;-69
2022/05/17 04:11:38;;;;;;;;;;;22.90;55.70;;;;;;4994225;28;20004;-70
2022/05/17 04:14:04;;;;;;;;;;;22.90;55.70;;;;;;5001468;28;19925;-69
2022/05/17 04:16:33;;;;;;;;;;;22.90;55.70;;;;;;4993744;28;19917;-70
2022/05/17 04:18:58;;;;;;;;;;;22.90;55.70;;;;;;4981256;28;19937;-69
2022/05/17 04:21:24;;;;;;;;;;;22.90;55.90;;;;;;4986681;28;19917;-69
2022/05/17 04:23:49;;;;;;;;;;;22.90;56.10;;;;;;5002469;28;19913;-69
2022/05/17 04:26:15;;;;;;;;;;;22.90;56.10;;;;;;4998742;28;19913;-69
2022/05/17 04:28:40;;;;;;;;;;;23.00;56.10;;;;;;4980133;28;19925;-69
2022/05/17 04:31:06;;;;;;;;;;;22.90;56.00;;;;;;4983359;28;19918;-70
2022/05/17 04:33:31;;;;;;;;;;;22.90;56.00;;;;;;4976251;28;19928;-68
2022/05/17 04:35:57;;;;;;;;;;;23.00;56.10;;;;;;5007273;28;19948;-68
2022/05/17 04:38:22;;;;;;;;;;;23.00;56.60;;;;;;4982220;28;19924;-66
2022/05/17 04:40:48;;;;;;;;;;;22.90;56.60;;;;;;4980700;28;19921;-69
2022/05/17 04:43:13;;;;;;;;;;;22.90;56.50;;;;;;4998540;28;19953;-69
2022/05/17 04:45:39;;;;;;;;;;;22.90;56.50;;;;;;5002263;28;20292;-71
2022/05/17 04:48:05;;;;;;;;;;;22.90;56.60;;;;;;4984422;28;19917;-71
2022/05/17 04:50:30;;;;;;;;;;;22.90;56.60;;;;;;4980116;28;19928;-72
2022/05/17 04:52:56;;;;;;;;;;;22.90;56.70;;;;;;4994475;28;19920;-72
2022/05/17 04:55:22;;;;;;;;;;;22.90;56.80;;;;;;5001932;28;19918;-70
2022/05/17 04:57:47;;;;;;;;;;;22.90;56.80;;;;;;4989359;28;19918;-68
2022/05/17 05:00:17;;;;;;;;;;;22.90;56.80;;;;;;4981498;28;19918;-69
2022/05/17 05:02:42;;;;;;;;;;;22.90;56.80;;;;;;4990533;28;20503;-68
2022/05/17 05:05:08;;;;;;;;;;;22.90;56.70;;;;;;5001463;28;19922;-70
2022/05/17 05:07:33;;;;;;;;;;;22.90;56.70;;;;;;4991740;28;19914;-73
2022/05/17 05:09:59;;;;;;;;;;;22.90;56.60;;;;;;4981542;28;19924;-72
2022/05/17 05:12:24;;;;;;;;;;;22.90;56.70;;;;;;4988688;28;20677;-71
2022/05/17 05:14:50;;;;;;;;;;;22.90;56.60;;;;;;5002422;28;19921;-69
2022/05/17 05:17:15;;;;;;;;;;;22.90;56.60;;;;;;4995652;28;19918;-69
2022/05/17 05:19:41;;;;;;;;;;;22.90;56.70;;;;;;4980546;28;19921;-70
2022/05/17 05:22:06;;;;;;;;;;;22.90;57.00;;;;;;4985655;28;19918;-70
2022/05/17 05:24:32;;;;;;;;;;;22.90;57.40;;;;;;4999592;28;19920;-69
2022/05/17 05:26:57;;;;;;;;;;;22.90;57.40;;;;;;4995088;28;19913;-67
2022/05/17 05:29:23;;;;;;;;;;;22.90;57.50;;;;;;4977294;28;19924;-69
2022/05/17 05:31:48;;;;;;;;;;;22.90;57.50;;;;;;4979648;28;19917;-68
2022/05/17 05:34:14;;;;;;;;;;;22.90;57.50;;;;;;4999440;28;20046;-69
2022/05/17 05:36:39;;;;;;;;;;;22.90;57.50;;;;;;4999574;28;19983;-69
2022/05/17 05:39:05;;;;;;;;;;;22.90;57.50;;;;;;4982879;28;19932;-69
2022/05/17 05:41:31;;;;;;;;;;;22.90;57.50;;;;;;4980807;28;20020;-69
2022/05/17 05:43:56;;;;;;;;;;;22.90;57.50;;;;;;4995621;28;19917;-69
2022/05/17 05:46:22;;;;;;;;;;;22.90;57.50;;;;;;5000147;28;19928;-69
2022/05/17 05:48:47;;;;;;;;;;;22.90;57.50;;;;;;4987902;28;20624;-69
2022/05/17 05:51:12;;;;;;;;;;;22.90;57.50;;;;;;4980835;28;19918;-67
2022/05/17 05:53:38;;;;;;;;;;;22.90;57.50;;;;;;4992927;28;19913;-66
2022/05/17 05:56:05;;;;;;;;;;;22.90;57.50;;;;;;5000577;28;19928;-69
2022/05/17 05:58:33;;;;;;;;;;;22.90;57.50;;;;;;4991289;28;20020;-69
2022/05/17 06:00:58;;;;;;;;;;;22.90;57.50;;;;;;4980710;28;19968;-69
2022/05/17 06:03:24;;;;;;;;;;;22.90;57.50;;;;;;4988710;28;19933;-70
2022/05/17 06:05:49;;;;;;;;;;;22.90;57.50;;;;;;5002121;28;19913;-69
2022/05/17 06:08:15;;;;;;;;;;;22.80;57.40;;;;;;4995665;28;20568;-69
2022/05/17 06:10:44;;;;;;;;;;;22.90;57.50;;;;;;4984736;28;20026;-70
2022/05/17 06:13:10;;;;;;;;;;;22.90;57.50;;;;;;4988656;28;19996;-69
2022/05/17 06:15:36;;;;;;;;;;;22.80;57.40;;;;;;5003175;28;19925;-69
2022/05/17 06:18:02;;;;;;;;;;;22.80;57.40;;;;;;5000330;28;19925;-69
2022/05/17 06:20:27;;;;;;;;;;;22.80;57.50;;;;;;4984173;28;19925;-69
2022/05/17 06:22:53;;;;;;;;;;;22.80;57.60;;;;;;4985680;28;19972;-67
2022/05/17 06:25:18;;;;;;;;;;;22.80;57.60;;;;;;5003374;28;19917;-67
2022/05/17 06:27:43;;;;;;;;;;;22.80;57.70;;;;;;5003328;28;19963;-69
2022/05/17 06:30:11;;;;;;;;;;;22.80;57.70;;;;;;4984873;28;19924;-68
2022/05/17 06:32:37;;;;;;;;;;;22.80;57.70;;;;;;4982758;28;19956;-69
2022/05/17 06:35:02;;;;;;;;;;;22.80;57.80;;;;;;5001677;28;20399;-69
2022/05/17 06:37:28;;;;;;;;;;;22.80;57.80;;;;;;5004426;28;20757;-69
2022/05/17 06:39:53;;;;;;;;;;;22.80;57.80;;;;;;4970334;28;19918;-69
2022/05/17 06:42:18;;;;;;;;;;;22.80;57.70;;;;;;4966243;28;20370;-69
2022/05/17 06:44:44;;;;;;;;;;;22.80;57.70;;;;;;4997233;28;19922;-70
2022/05/17 06:47:09;;;;;;;;;;;22.80;57.70;;;;;;5002652;28;19924;-70
2022/05/17 06:49:35;;;;;;;;;;;22.80;57.60;;;;;;4990392;28;19918;-67
2022/05/17 06:52:01;;;;;;;;;;;22.80;57.60;;;;;;4966594;28;20002;-68
2022/05/17 06:54:28;;;;;;;;;;;22.80;57.60;;;;;;4976655;28;20537;-68
2022/05/17 06:56:53;;;;;;;;;;;22.80;57.50;;;;;;4985978;28;19929;-69
2022/05/17 06:59:18;;;;;;;;;;;22.80;57.50;;;;;;4993487;28;19918;-69
2022/05/17 07:01:44;;;;;;;;;;;22.80;57.50;;;;;;4984109;28;19958;-69
2022/05/17 07:04:09;;;;;;;;;;;22.80;57.50;;;;;;4989118;28;20553;-69
2022/05/17 07:06:35;;;;;;;;;;;22.80;57.40;;;;;;5003937;28;19925;-70
2022/05/17 07:09:00;;;;;;;;;;;22.80;57.40;;;;;;4997801;28;19922;-70
2022/05/17 07:14:10;;;;;;;;;;;22.80;57.40;;;;;;4974607;28;19984;-68
2022/05/17 07:16:35;;;;;;;;;;;22.80;57.40;;;;;;4986660;28;20368;-69
2022/05/17 07:19:01;;;;;;;;;;;22.80;57.40;;;;;;4985575;28;19921;-70
2022/05/17 07:21:26;;;;;;;;;;;22.80;57.40;;;;;;4984612;28;19918;-69
2022/05/17 07:23:52;;;;;;;;;;;22.80;57.40;;;;;;5001932;28;19921;-68
2022/05/17 07:26:17;;;;;;;;;;;22.80;57.30;;;;;;4981756;28;19980;-70
2022/05/17 07:28:44;;;;;;;;;;;22.80;57.30;;;;;;4982402;28;20005;-70
2022/05/17 07:31:09;;;;;;;;;;;22.80;57.40;;;;;;5000935;28;20339;-70
2022/05/17 07:33:35;;;;;;;;;;;22.80;57.30;;;;;;5001078;28;19913;-67
2022/05/17 07:36:01;;;;;;;;;;;22.80;57.30;;;;;;4985804;28;19971;-67
2022/05/17 07:38:26;;;;;;;;;;;22.80;57.30;;;;;;4965356;28;19925;-67
2022/05/17 07:40:53;;;;;;;;;;;22.80;57.30;;;;;;4989985;28;19917;-69
2022/05/17 07:43:18;;;;;;;;;;;22.80;57.30;;;;;;5001006;28;20004;-69
2022/05/17 07:45:44;;;;;;;;;;;22.70;57.20;;;;;;4988247;28;19949;-70
2022/05/17 07:48:10;;;;;;;;;;;22.70;57.20;;;;;;4983507;28;19918;-69
2022/05/17 07:50:36;;;;;;;;;;;22.80;57.20;;;;;;4992516;28;19944;-70
2022/05/17 07:53:06;;;;;;;;;;;22.80;57.20;;;;;;4984216;28;19960;-69
2022/05/17 07:55:32;;;;;;;;;;;22.70;57.20;;;;;;4992029;28;19925;-70
2022/05/17 07:57:57;;;;;;;;;;;22.80;57.20;;;;;;4981469;28;19918;-69
2022/05/17 08:00:22;;;;;;;;;;;22.70;57.20;;;;;;4988959;28;19999;-69
2022/05/17 08:02:49;;;;;;;;;;;22.70;57.20;;;;;;5002219;28;19980;-69
2022/05/17 08:05:15;;;;;;;;;;;22.70;57.20;;;;;;4995744;28;19989;-68
2022/05/17 08:07:40;;;;;;;;;;;22.70;57.20;;;;;;4982727;28;19950;-67
2022/05/17 08:10:06;;;;;;;;;;;22.80;57.20;;;;;;4978629;28;19917;-68
2022/05/17 08:12:31;;;;;;;;;;;22.70;57.20;;;;;;4986022;28;19983;-69
2022/05/17 08:14:57;;;;;;;;;;;22.80;57.30;;;;;;4985832;28;20762;-70
2022/05/17 08:17:23;;;;;;;;;;;22.70;57.20;;;;;;4982439;28;19973;-69
2022/05/17 08:19:49;;;;;;;;;;;22.70;57.20;;;;;;4980471;28;19945;-70
2022/05/17 08:22:14;;;;;;;;;;;22.70;57.20;;;;;;5001557;28;19925;-70
2022/05/17 08:27:36;;;;;;;;;;;22.70;57.20;;;;;;4981339;28;20029;-70
2022/05/17 08:30:05;;;;;;;;;;;22.70;57.20;;;;;;4967481;28;20403;-70
2022/05/17 08:35:14;;;;;;;;;;;22.60;57.10;;;;;;4997628;28;20657;-68
2022/05/17 08:37:39;;;;;;;;;;;22.70;57.20;;;;;;4965138;28;19918;-69
2022/05/17 08:40:05;;;;;;;;;;;22.70;57.20;;;;;;4979261;28;19980;-70
2022/05/17 08:42:44;;;;;;;;;;;22.70;57.20;;;;;;5001444;28;19924;-69
2022/05/17 08:45:11;;;;;;;;;;;22.70;57.20;;;;;;4982364;28;19914;-69
2022/05/17 08:47:38;;;;;;;;;;;22.70;57.20;;;;;;4980597;28;19925;-69
2022/05/17 08:50:11;;;;;;;;;;;22.70;57.20;;;;;;4978201;28;19932;-68
2022/05/17 08:52:37;;;;;;;;;;;22.70;57.20;;;;;;4960966;28;20501;-69
2022/05/17 08:55:02;;;;;;;;;;;22.70;57.20;;;;;;4975511;28;19915;-69
2022/05/17 08:57:30;;;;;;;;;;;22.70;57.20;;;;;;4996800;28;19922;-70
2022/05/17 08:59:56;;;;;;;;;;;22.70;57.20;;;;;;4999311;28;20594;-69
2022/05/17 09:02:28;;;;;;;;;;;22.70;57.20;;;;;;4984911;28;19926;-69
2022/05/17 09:05:11;;;;;;;;;;;22.70;57.20;;;;;;4978390;28;19917;-69
2022/05/17 09:07:43;;;;;;;;;;;22.70;57.20;;;;;;4975474;28;19926;-69
2022/05/17 09:10:18;;;;;;;;;;;22.60;57.10;;;;;;4943832;28;19918;-69
2022/05/17 09:13:02;;;;;;;;;;;22.70;57.20;;;;;;4996228;28;19914;-69
2022/05/17 09:15:27;;;;;;;;;;;22.60;57.20;;;;;;4999578;28;20582;-67
2022/05/17 09:17:53;;;;;;;;;;;22.60;57.10;;;;;;4982109;28;20412;-68
2022/05/17 09:20:21;;;;;;;;;;;22.60;57.20;;;;;;4963018;28;19921;-68
2022/05/17 09:22:46;;;;;;;;;;;22.60;57.20;;;;;;4996467;28;19996;-69
2022/05/17 09:25:17;;;;;;;;;;;22.60;57.10;;;;;;5000131;28;20004;-69
2022/05/17 09:27:44;;;;;;;;;;;22.60;57.10;;;;;;4958992;28;20010;-69
2022/05/17 09:30:11;;;;;;;;;;;22.60;57.10;;;;;;4979836;28;19918;-68
2022/05/17 09:32:38;;;;;;;;;;;22.60;57.10;;;;;;4995452;28;20286;-70
2022/05/17 09:35:11;;;;;;;;;;;22.60;57.20;;;;;;4999747;28;19917;-69
2022/05/17 09:37:37;;;;;;;;;;;22.60;57.10;;;;;;4986249;28;20274;-69
2022/05/17 09:40:04;;;;;;;;;;;22.60;57.10;;;;;;4980600;28;19945;-68
2022/05/17 09:42:32;;;;;;;;;;;22.60;57.10;;;;;;4992079;28;19924;-69
2022/05/17 09:44:59;;;;;;;;;;;22.60;57.10;;;;;;5002940;28;19964;-70
2022/05/17 09:47:34;;;;;;;;;;;22.60;57.20;;;;;;4992948;28;19914;-69
2022/05/17 09:52:58;;;;;;;;;;;22.60;57.10;;;;;;4996565;28;19924;-69
2022/05/17 09:55:24;;;;;;;;;;;22.60;57.10;;;;;;5005040;28;20198;-68
2022/05/17 09:57:52;;;;;;;;;;;22.60;57.10;;;;;;4992135;28;20340;-69
2022/05/17 10:00:25;;;;;;;;;;;22.60;57.10;;;;;;4984159;28;19949;-67
2022/05/17 10:02:51;;;;;;;;;;;22.60;57.10;;;;;;4979158;28;19976;-69
2022/05/17 10:05:21;;;;;;;;;;;22.70;57.10;;;;;;5002907;28;20479;-68
2022/05/17 10:07:54;;;;;;;;;;;22.60;57.00;;;;;;4991593;28;20569;-69
2022/05/17 10:10:21;;;;;;;;;;;22.60;57.00;;;;;;4982288;28;19967;-68
2022/05/17 10:12:46;;;;;;;;;;;22.60;57.00;;;;;;4992985;28;20380;-70
2022/05/17 10:15:12;;;;;;;;;;;22.70;57.00;;;;;;5003359;28;19917;-69
2022/05/17 10:17:44;;;;;;;;;;;22.70;57.00;;;;;;4995115;28;20328;-69
2022/05/17 10:20:16;;;;;;;;;;;22.70;57.00;;;;;;4966484;28;19980;-69
2022/05/17 10:22:50;;;;;;;;;;;22.70;56.90;;;;;;4974888;28;20368;-69
2022/05/17 10:25:27;;;;;;;;;;;22.70;56.90;;;;;;5002483;28;19952;-69
2022/05/17 10:27:57;;;;;;;;;;;22.70;57.00;;;;;;4994874;28;20292;-69
2022/05/17 10:30:25;;;;;;;;;;;22.80;56.90;;;;;;4982688;28;20268;-70
2022/05/17 10:33:06;;;;;;;;;;;22.80;56.90;;;;;;4990719;28;20392;-69
2022/05/17 10:35:33;;;;;;;;;;;22.80;56.90;;;;;;4985287;28;19921;-70
2022/05/17 10:38:02;;;;;;;;;;;22.80;57.00;;;;;;4994582;28;19976;-69
2022/05/17 10:40:29;;;;;;;;;;;22.80;57.00;;;;;;4982815;28;19917;-69
2022/05/17 10:42:54;;;;;;;;;;;22.70;57.00;;;;;;4989583;28;19918;-70
2022/05/17 10:45:21;;;;;;;;;;;22.80;56.90;;;;;;5003487;28;19921;-70
2022/05/17 10:48:05;;;;;;;;;;;22.80;57.00;;;;;;4998304;28;19924;-70
2022/05/17 10:50:31;;;;;;;;;;;22.80;57.00;;;;;;4981738;28;19914;-69
2022/05/17 10:53:15;;;;;;;;;;;22.80;57.40;;;;;;4989779;28;20330;-68
2022/05/17 10:55:57;;;;;;;;;;;22.70;57.20;;;;;;5003350;28;20609;-71
2022/05/17 10:58:43;;;;;;;;;;;22.80;57.30;;;;;;4977003;28;20001;-67
2022/05/17 11:01:11;;;;;;;;;;;22.80;57.40;;;;;;4984197;28;19914;-69
2022/05/17 11:03:38;;;;;;;;;;;22.80;57.70;;;;;;4975893;28;19926;-69
2022/05/17 11:06:22;;;;;;;;;;;22.70;57.40;;;;;;5003220;28;19917;-70
2022/05/17 11:08:47;;;;;;;;;;;22.70;57.40;;;;;;4991811;28;19921;-68
2022/05/17 11:11:19;;;;;;;;;;;22.70;57.20;;;;;;4984203;28;19913;-68
2022/05/17 11:13:46;;;;;;;;;;;22.70;57.60;;;;;;4993413;28;20674;-69
2022/05/17 11:16:30;;;;;;;;;;;22.70;57.20;;;;;;4975859;28;20712;-69
2022/05/17 11:19:01;;;;;;;;;;;22.70;57.30;;;;;;4991808;28;19914;-69
2022/05/17 11:21:35;;;;;;;;;;;22.70;57.40;;;;;;4982397;28;19914;-70
2022/05/17 11:24:04;;;;;;;;;;;22.70;57.70;;;;;;4975898;28;19913;-69
2022/05/17 11:26:29;;;;;;;;;;;22.70;57.60;;;;;;5001809;28;19914;-69
2022/05/17 11:28:59;;;;;;;;;;;22.80;57.80;;;;;;4993079;28;19925;-69
2022/05/17 11:31:43;;;;;;;;;;;22.70;57.70;;;;;;4982015;28;19956;-69
2022/05/17 11:34:26;;;;;;;;;;;22.70;57.60;;;;;;4991473;28;19913;-69
2022/05/17 11:36:55;;;;;;;;;;;22.70;57.90;;;;;;5002579;28;19948;-69
2022/05/17 11:39:29;;;;;;;;;;;22.70;57.70;;;;;;4974054;28;19964;-70
2022/05/17 11:42:04;;;;;;;;;;;22.70;57.70;;;;;;4982193;28;19918;-69
2022/05/17 11:44:31;;;;;;;;;;;22.70;57.60;;;;;;4993724;28;19917;-69
2022/05/17 11:46:58;;;;;;;;;;;22.70;57.40;;;;;;5001933;28;19976;-69
2022/05/17 11:49:24;;;;;;;;;;;22.70;57.70;;;;;;5001311;28;20449;-69
2022/05/17 11:51:59;;;;;;;;;;;22.70;57.50;;;;;;5001921;28;20348;-70
2022/05/17 11:54:42;;;;;;;;;;;22.70;57.50;;;;;;4993925;28;19918;-69
2022/05/17 11:57:23;;;;;;;;;;;22.70;57.30;;;;;;4966749;28;20017;-69
2022/05/17 11:59:54;;;;;;;;;;;22.70;57.30;;;;;;4997632;28;20427;-69
2022/05/17 12:02:20;;;;;;;;;;;22.70;57.10;;;;;;5003055;28;19931;-69
2022/05/17 12:04:45;;;;;;;;;;;22.70;57.10;;;;;;4990433;28;19913;-69
2022/05/17 12:07:18;;;;;;;;;;;22.70;57.20;;;;;;4981098;28;19921;-69
2022/05/17 12:09:47;;;;;;;;;;;22.70;57.10;;;;;;4991429;28;20321;-71
2022/05/17 12:12:51;;;;;;;;;;;22.60;57.00;;;;;;5001057;28;21926;-69
2022/05/17 12:15:36;;;;;;;;;;;22.60;57.00;;;;;;4908468;29;19915;-69
2022/05/17 12:18:02;;;;;;;;;;;22.70;57.00;;;;;;4887203;29;20540;-70
2022/05/17 12:20:34;;;;;;;;;;;22.70;57.00;;;;;;4963542;28;19917;-70
2022/05/17 12:23:05;;;;;;;;;;;22.70;57.00;;;;;;5000742;28;19914;-70
2022/05/17 12:25:34;;;;;;;;;;;22.70;57.00;;;;;;4986606;28;20564;-70
2022/05/17 12:28:00;;;;;;;;;;;22.60;56.90;;;;;;4980525;28;20029;-70
2022/05/17 12:33:12;;;;;;;;;;;22.60;57.00;;;;;;5000653;28;20467;-70
2022/05/17 12:35:37;;;;;;;;;;;22.60;56.90;;;;;;4988088;28;20416;-70
2022/05/17 12:43:02;;;;;;;;;;;22.60;56.90;;;;;;4981186;28;19921;-68
2022/05/17 12:43:33;;;;;;;;;;;22.60;56.90;;;;;;5000684;28;19923;-69
2022/05/17 12:46:07;;;;;;;;;;;22.70;57.00;;;;;;4985805;28;20300;-69
2022/05/17 12:48:33;;;;;;;;;;;22.60;56.90;;;;;;4983332;28;20595;-70
2022/05/17 12:51:00;;;;;;;;;;;22.60;56.90;;;;;;4994875;28;19913;-69
2022/05/17 12:53:29;;;;;;;;;;;22.60;56.90;;;;;;4999985;28;19917;-69
2022/05/17 12:55:58;;;;;;;;;;;22.60;56.90;;;;;;4986915;28;20440;-70
2022/05/17 12:58:23;;;;;;;;;;;22.60;56.90;;;;;;4980069;28;19917;-69
2022/05/17 13:00:54;;;;;;;;;;;22.60;56.90;;;;;;4975452;28;20373;-69
2022/05/17 13:03:20;;;;;;;;;;;22.60;57.00;;;;;;4999882;28;19921;-70
2022/05/17 13:05:49;;;;;;;;;;;22.60;57.00;;;;;;4989606;28;20336;-69
2022/05/17 13:08:17;;;;;;;;;;;22.60;57.00;;;;;;4980519;28;19968;-69
2022/05/17 13:10:43;;;;;;;;;;;22.60;57.00;;;;;;4989279;28;19951;-69
2022/05/17 13:13:35;;;;;;;;;;;22.60;56.90;;;;;;4999870;28;19945;-69
2022/05/17 13:16:02;;;;;;;;;;;22.60;56.90;;;;;;4986355;28;20033;-70
2022/05/17 13:18:32;;;;;;;;;;;22.60;56.90;;;;;;4964738;28;19924;-70
2022/05/17 13:20:58;;;;;;;;;;;22.60;56.90;;;;;;4994948;28;19918;-70
2022/05/17 13:23:25;;;;;;;;;;;22.70;57.00;;;;;;5003811;28;19913;-69
2022/05/17 13:25:51;;;;;;;;;;;22.60;56.90;;;;;;4995416;28;19946;-69
2022/05/17 13:28:23;;;;;;;;;;;22.60;56.90;;;;;;4984371;28;19921;-70
2022/05/17 13:30:49;;;;;;;;;;;22.70;57.00;;;;;;4991345;28;20621;-69
2022/05/17 13:33:26;;;;;;;;;;;22.70;57.00;;;;;;5004185;28;19928;-69
2022/05/17 13:36:01;;;;;;;;;;;22.70;57.00;;;;;;4979069;28;20182;-69
2022/05/17 13:38:27;;;;;;;;;;;22.70;56.90;;;;;;4982912;28;19917;-69
2022/05/17 13:40:54;;;;;;;;;;;22.70;56.90;;;;;;4990841;28;19923;-69
2022/05/17 13:43:37;;;;;;;;;;;22.70;56.90;;;;;;5003025;28;20583;-68
2022/05/17 13:46:05;;;;;;;;;;;22.70;56.90;;;;;;4995629;28;19953;-70
2022/05/17 13:48:31;;;;;;;;;;;22.70;56.90;;;;;;4982907;28;19944;-70
2022/05/17 13:50:57;;;;;;;;;;;22.70;56.80;;;;;;4973745;28;20021;-70
2022/05/17 13:53:22;;;;;;;;;;;22.70;56.90;;;;;;5003357;28;20470;-69
2022/05/17 13:55:48;;;;;;;;;;;22.70;56.80;;;;;;4997667;28;19922;-70
2022/05/17 13:58:14;;;;;;;;;;;22.60;56.80;;;;;;4983277;28;20491;-69
2022/05/17 14:00:43;;;;;;;;;;;22.70;56.90;;;;;;4979243;28;19944;-69
2022/05/17 14:03:20;;;;;;;;;;;22.70;56.90;;;;;;5002865;28;19929;-69
2022/05/17 14:06:08;;;;;;;;;;;22.60;57.00;;;;;;4993622;28;20446;-70
2022/05/17 14:14:06;;;;;;;;;;;22.60;57.00;;;;;;4982488;28;20019;-66
2022/05/17 14:16:32;;;;;;;;;;;22.60;57.00;;;;;;4974382;28;19964;-68
2022/05/17 14:19:00;;;;;;;;;;;22.60;57.00;;;;;;5002038;28;20011;-67
2022/05/17 14:21:26;;;;;;;;;;;22.60;57.00;;;;;;4979929;28;20296;-66
2022/05/17 14:23:51;;;;;;;;;;;22.60;57.00;;;;;;4967416;28;19929;-67
2022/05/17 14:26:20;;;;;;;;;;;22.60;57.00;;;;;;4988859;28;20341;-69
2022/05/17 14:28:47;;;;;;;;;;;22.60;56.90;;;;;;5001920;28;19967;-68
2022/05/17 14:31:16;;;;;;;;;;;22.60;57.00;;;;;;4999866;28;19917;-68
2022/05/17 14:33:41;;;;;;;;;;;22.60;56.90;;;;;;4982577;28;20056;-68
2022/05/17 14:36:09;;;;;;;;;;;22.60;56.90;;;;;;4986009;28;20374;-69
2022/05/17 14:38:34;;;;;;;;;;;22.60;56.90;;;;;;5001435;28;19917;-67
2022/05/17 14:41:00;;;;;;;;;;;22.60;56.90;;;;;;5003964;28;19917;-67
2022/05/17 14:43:25;;;;;;;;;;;22.60;56.90;;;;;;4982637;28;19945;-66
2022/05/17 14:45:52;;;;;;;;;;;22.60;56.90;;;;;;4984503;28;19921;-67